sensor_id;sensor_type;location;lat;lon;timestamp;pressure;altitude;pressure_sealevel;temperature;humidity
76046;BME280;64741;41.730;44.788;2023-06-14T00:02:18;983.9;;;28.7;41.4
76046;BME280;64741;41.730;44.788;2023-06-14T00:07:36;983.9;;;28.6;41.4
76046;BME280;64741;41.730;44.788;2023-06-14T00:12:22;983.9;;;28.6;41.4
76046;BME280;64741;41.730;44.788;2023-06-14T00:17:12;983.9;;;28.6;41.4
76046;BME280;64741;41.730;44.788;2023-06-14T00:21:50;983.9;;;28.6;41.4
76046;BME280;64741;41.730;44.788;2023-06-14T00:27:30;983.8;;;28.6;41.3
76046;BME280;64741;41.730;44.788;2023-06-14T00:32:18;983.7;;;28.6;41.3
76046;BME280;64741;41.730;44.788;2023-06-14T00:37:30;983.7;;;28.6;41.3
76046;BME280;64741;41.730;44.788;2023-06-14T00:42:26;983.7;;;28.6;41.3
76046;BME280;64741;41.730;44.788;2023-06-14T00:47:30;983.6;;;28.6;41.3
76046;BME280;64741;41.730;44.788;2023-06-14T00:52:20;983.6;;;28.6;41.2
76046;BME280;64741;41.730;44.788;2023-06-14T00:57:30;983.7;;;28.5;41.2
76046;BME280;64741;41.730;44.788;2023-06-14T01:02:16;983.6;;;28.5;41.2
76046;BME280;64741;41.730;44.788;2023-06-14T01:07:31;983.7;;;28.5;41.2
76046;BME280;64741;41.730;44.788;2023-06-14T01:12:21;983.6;;;28.5;41.2
76046;BME280;64741;41.730;44.788;2023-06-14T01:17:10;983.6;;;28.5;41.2
76046;BME280;64741;41.730;44.788;2023-06-14T01:22:18;983.6;;;28.5;41.2
76046;BME280;64741;41.730;44.788;2023-06-14T01:27:28;983.7;;;28.5;41.2
76046;BME280;64741;41.730;44.788;2023-06-14T01:32:12;983.6;;;28.5;41.2
76046;BME280;64741;41.730;44.788;2023-06-14T01:37:30;983.6;;;28.5;41.1
76046;BME280;64741;41.730;44.788;2023-06-14T01:42:16;983.6;;;28.5;41
76046;BME280;64741;41.730;44.788;2023-06-14T01:47:30;983.6;;;28.4;41
76046;BME280;64741;41.730;44.788;2023-06-14T01:52:20;983.7;;;28.4;41.1
76046;BME280;64741;41.730;44.788;2023-06-14T01:57:31;983.7;;;28.4;41.1
76046;BME280;64741;41.730;44.788;2023-06-14T02:01:52;983.8;;;28.4;41.1
76046;BME280;64741;41.730;44.788;2023-06-14T02:07:30;983.9;;;28.4;41.1
76046;BME280;64741;41.730;44.788;2023-06-14T02:12:20;984;;;28.4;41.1
76046;BME280;64741;41.730;44.788;2023-06-14T02:17:30;984;;;28.4;41.1
76046;BME280;64741;41.730;44.788;2023-06-14T02:22:18;984.1;;;28.4;41.1
76046;BME280;64741;41.730;44.788;2023-06-14T02:27:30;984.2;;;28.4;41.1
76046;BME280;64741;41.730;44.788;2023-06-14T02:32:18;984.3;;;28.4;41.2
76046;BME280;64741;41.730;44.788;2023-06-14T02:37:30;984.3;;;28.4;41.3
76046;BME280;64741;41.730;44.788;2023-06-14T02:42:18;984.4;;;28.4;41.2
76046;BME280;64741;41.730;44.788;2023-06-14T02:47:30;984.5;;;28.4;41.2
76046;BME280;64741;41.730;44.788;2023-06-14T02:52:20;984.5;;;28.4;41.2
76046;BME280;64741;41.730;44.788;2023-06-14T02:57:24;984.4;;;28.4;41.2
76046;BME280;64741;41.730;44.788;2023-06-14T03:02:20;984.3;;;28.4;41.2
76046;BME280;64741;41.730;44.788;2023-06-14T03:07:30;984.3;;;28.4;41.3
76046;BME280;64741;41.730;44.788;2023-06-14T03:12:20;984.2;;;28.4;41.3
76046;BME280;64741;41.730;44.788;2023-06-14T03:17:28;984;;;28.4;41.3
76046;BME280;64741;41.730;44.788;2023-06-14T03:22:20;984;;;28.4;41.4
76046;BME280;64741;41.730;44.788;2023-06-14T03:27:28;984;;;28.4;41.3
76046;BME280;64741;41.730;44.788;2023-06-14T03:32:10;983.9;;;28.4;41.2
76046;BME280;64741;41.730;44.788;2023-06-14T03:37:28;983.8;;;28.4;41.4
76046;BME280;64741;41.730;44.788;2023-06-14T03:42:18;983.8;;;28.4;41.7
76046;BME280;64741;41.730;44.788;2023-06-14T03:47:30;983.8;;;28.4;41.5
76046;BME280;64741;41.730;44.788;2023-06-14T03:52:18;983.8;;;28.4;41.4
76046;BME280;64741;41.730;44.788;2023-06-14T03:57:30;983.7;;;28.4;41.3
76046;BME280;64741;41.730;44.788;2023-06-14T04:02:18;983.8;;;28.3;41.5
76046;BME280;64741;41.730;44.788;2023-06-14T04:07:30;984;;;28.3;41.4
76046;BME280;64741;41.730;44.788;2023-06-14T04:12:20;983.9;;;28.1;41.3
76046;BME280;64741;41.730;44.788;2023-06-14T04:17:30;983.9;;;27.9;41.7
76046;BME280;64741;41.730;44.788;2023-06-14T04:22:20;984;;;28;41.9
76046;BME280;64741;41.730;44.788;2023-06-14T04:27:28;984;;;28;42
76046;BME280;64741;41.730;44.788;2023-06-14T04:32:20;983.9;;;28.1;42.2
76046;BME280;64741;41.730;44.788;2023-06-14T04:37:28;983.9;;;28.1;42.4
76046;BME280;64741;41.730;44.788;2023-06-14T04:42:18;983.7;;;28.1;42.1
76046;BME280;64741;41.730;44.788;2023-06-14T04:47:30;983.7;;;28.1;42.2
76046;BME280;64741;41.730;44.788;2023-06-14T04:52:20;983.7;;;28.1;42.2
76046;BME280;64741;41.730;44.788;2023-06-14T04:57:30;983.7;;;28.1;42
76046;BME280;64741;41.730;44.788;2023-06-14T05:02:18;983.7;;;28;42
76046;BME280;64741;41.730;44.788;2023-06-14T05:06:44;983.6;;;27.9;42.2
76046;BME280;64741;41.730;44.788;2023-06-14T05:12:22;983.7;;;28;42.2
76046;BME280;64741;41.730;44.788;2023-06-14T05:17:30;983.6;;;27.9;42.3
76046;BME280;64741;41.730;44.788;2023-06-14T05:22:20;983.7;;;28;42.3
76046;BME280;64741;41.730;44.788;2023-06-14T05:27:30;983.7;;;28;42.2
76046;BME280;64741;41.730;44.788;2023-06-14T05:32:20;983.8;;;28.1;42.1
76046;BME280;64741;41.730;44.788;2023-06-14T05:37:30;983.8;;;28.1;42.3
76046;BME280;64741;41.730;44.788;2023-06-14T05:42:18;983.8;;;28.2;42.1
76046;BME280;64741;41.730;44.788;2023-06-14T05:47:30;983.8;;;28.2;42.1
76046;BME280;64741;41.730;44.788;2023-06-14T05:52:20;983.8;;;28.3;41.9
76046;BME280;64741;41.730;44.788;2023-06-14T05:57:32;983.8;;;28.2;41.9
76046;BME280;64741;41.730;44.788;2023-06-14T06:02:20;983.8;;;28.1;42.1
76046;BME280;64741;41.730;44.788;2023-06-14T06:06:58;983.9;;;28.2;42.5
76046;BME280;64741;41.730;44.788;2023-06-14T06:12:22;984;;;28.2;42.4
76046;BME280;64741;41.730;44.788;2023-06-14T06:17:30;983.9;;;28.1;42.4
76046;BME280;64741;41.730;44.788;2023-06-14T06:22:20;983.9;;;28.1;42.3
76046;BME280;64741;41.730;44.788;2023-06-14T06:27:00;983.8;;;28.1;42.3
76046;BME280;64741;41.730;44.788;2023-06-14T06:32:24;983.8;;;28.1;42.3
76046;BME280;64741;41.730;44.788;2023-06-14T06:37:32;983.9;;;28.1;42.3
76046;BME280;64741;41.730;44.788;2023-06-14T06:42:20;983.9;;;28.2;42.5
76046;BME280;64741;41.730;44.788;2023-06-14T06:47:30;983.8;;;28.2;42.5
76046;BME280;64741;41.730;44.788;2023-06-14T06:52:22;983.8;;;28.1;42.4
76046;BME280;64741;41.730;44.788;2023-06-14T06:57:32;983.9;;;28.2;42.2
76046;BME280;64741;41.730;44.788;2023-06-14T07:02:20;983.8;;;28.3;42.2
76046;BME280;64741;41.730;44.788;2023-06-14T07:07:30;983.9;;;28.3;42.1
76046;BME280;64741;41.730;44.788;2023-06-14T07:12:22;983.9;;;28.4;42.1
76046;BME280;64741;41.730;44.788;2023-06-14T07:17:32;983.9;;;28.4;42.2
76046;BME280;64741;41.730;44.788;2023-06-14T07:22:20;983.9;;;28.4;42.2
76046;BME280;64741;41.730;44.788;2023-06-14T07:27:32;984;;;28.4;42.3
76046;BME280;64741;41.730;44.788;2023-06-14T07:32:20;984;;;28.5;42.5
76046;BME280;64741;41.730;44.788;2023-06-14T07:37:26;984;;;28.5;42.3
76046;BME280;64741;41.730;44.788;2023-06-14T07:42:33;984.1;;;28.5;42.1
76046;BME280;64741;41.730;44.788;2023-06-14T07:47:26;984;;;28.4;41.8
76046;BME280;64741;41.730;44.788;2023-06-14T07:52:32;984;;;28.4;42
76046;BME280;64741;41.730;44.788;2023-06-14T07:57:24;983.9;;;28.4;42
76046;BME280;64741;41.730;44.788;2023-06-14T08:02:30;983.9;;;28.4;42
76046;BME280;64741;41.730;44.788;2023-06-14T08:07:26;984;;;28.5;42.2
76046;BME280;64741;41.730;44.788;2023-06-14T08:12:32;984;;;28.5;42.4
76046;BME280;64741;41.730;44.788;2023-06-14T08:17:14;983.9;;;28.6;42.2
76046;BME280;64741;41.730;44.788;2023-06-14T08:22:30;983.8;;;28.6;42.2
76046;BME280;64741;41.730;44.788;2023-06-14T08:27:20;983.8;;;28.7;42.3
76046;BME280;64741;41.730;44.788;2023-06-14T08:32:30;983.8;;;28.7;42.3
76046;BME280;64741;41.730;44.788;2023-06-14T08:37:24;983.7;;;28.8;42.3
76046;BME280;64741;41.730;44.788;2023-06-14T08:42:28;983.7;;;28.8;42.2
76046;BME280;64741;41.730;44.788;2023-06-14T08:47:24;983.6;;;28.8;42.2
76046;BME280;64741;41.730;44.788;2023-06-14T08:52:33;983.5;;;28.9;42.3
76046;BME280;64741;41.730;44.788;2023-06-14T08:57:24;983.5;;;28.9;42.3
76046;BME280;64741;41.730;44.788;2023-06-14T09:02:32;983.6;;;29;41.8
76046;BME280;64741;41.730;44.788;2023-06-14T09:07:26;983.6;;;29;41.9
76046;BME280;64741;41.730;44.788;2023-06-14T09:12:32;983.4;;;29.1;41.9
76046;BME280;64741;41.730;44.788;2023-06-14T09:17:26;983.3;;;29.1;42
76046;BME280;64741;41.730;44.788;2023-06-14T09:21:38;983.3;;;29.1;42
76046;BME280;64741;41.730;44.788;2023-06-14T09:27:28;983.3;;;29.1;41.6
76046;BME280;64741;41.730;44.788;2023-06-14T09:32:32;983.2;;;29.2;41.3
76046;BME280;64741;41.730;44.788;2023-06-14T09:37:27;983.2;;;29.2;41
76046;BME280;64741;41.730;44.788;2023-06-14T09:42:34;983.1;;;29.2;40.9
76046;BME280;64741;41.730;44.788;2023-06-14T09:47:26;983;;;29.3;40.8
76046;BME280;64741;41.730;44.788;2023-06-14T09:52:32;983;;;29.3;40.7
76046;BME280;64741;41.730;44.788;2023-06-14T09:57:26;982.9;;;29.3;40.1
76046;BME280;64741;41.730;44.788;2023-06-14T10:02:34;982.9;;;29.3;39.4
76046;BME280;64741;41.730;44.788;2023-06-14T10:07:24;982.9;;;29.3;38.9
76046;BME280;64741;41.730;44.788;2023-06-14T10:12:32;982.9;;;29.3;38.6
76046;BME280;64741;41.730;44.788;2023-06-14T10:17:27;982.8;;;29.3;38.6
76046;BME280;64741;41.730;44.788;2023-06-14T10:22:34;982.8;;;29.3;38.2
76046;BME280;64741;41.730;44.788;2023-06-14T10:27:26;982.7;;;29.4;37.9
76046;BME280;64741;41.730;44.788;2023-06-14T10:32:32;982.7;;;29.4;37.8
76046;BME280;64741;41.730;44.788;2023-06-14T10:37:26;982.6;;;29.4;37.9
76046;BME280;64741;41.730;44.788;2023-06-14T10:42:32;982.6;;;29.4;37.4
76046;BME280;64741;41.730;44.788;2023-06-14T10:47:27;982.5;;;29.4;36.9
76046;BME280;64741;41.730;44.788;2023-06-14T10:52:33;982.5;;;29.4;36.8
76046;BME280;64741;41.730;44.788;2023-06-14T10:57:26;982.4;;;29.4;36.9
76046;BME280;64741;41.730;44.788;2023-06-14T11:02:39;982.3;;;29.4;36.7
76046;BME280;64741;41.730;44.788;2023-06-14T11:07:28;982.3;;;29.5;36.9
76046;BME280;64741;41.730;44.788;2023-06-14T11:12:33;982.3;;;29.5;37
76046;BME280;64741;41.730;44.788;2023-06-14T11:17:26;982.2;;;29.5;37.4
76046;BME280;64741;41.730;44.788;2023-06-14T11:22:38;982.1;;;29.5;37.5
76046;BME280;64741;41.730;44.788;2023-06-14T11:27:28;982;;;29.5;37.3
76046;BME280;64741;41.730;44.788;2023-06-14T11:32:34;982;;;29.6;37.5
76046;BME280;64741;41.730;44.788;2023-06-14T11:37:28;982;;;29.6;37.7
76046;BME280;64741;41.730;44.788;2023-06-14T11:42:34;982;;;29.6;37.6
76046;BME280;64741;41.730;44.788;2023-06-14T11:47:31;981.9;;;29.6;37.6
76046;BME280;64741;41.730;44.788;2023-06-14T11:52:35;981.9;;;29.6;37.8
76046;BME280;64741;41.730;44.788;2023-06-14T11:57:28;981.8;;;29.7;37.4
76046;BME280;64741;41.730;44.788;2023-06-14T12:02:34;981.7;;;29.7;37.2
76046;BME280;64741;41.730;44.788;2023-06-14T12:07:26;981.7;;;29.7;37
76046;BME280;64741;41.730;44.788;2023-06-14T12:12:35;981.7;;;29.7;37.4
76046;BME280;64741;41.730;44.788;2023-06-14T12:17:03;981.8;;;29.7;37.2
76046;BME280;64741;41.730;44.788;2023-06-14T12:22:16;981.8;;;29.7;36.7
76046;BME280;64741;41.730;44.788;2023-06-14T12:27:28;981.8;;;29.7;37.3
76046;BME280;64741;41.730;44.788;2023-06-14T12:32:32;981.8;;;29.7;39
76046;BME280;64741;41.730;44.788;2023-06-14T12:37:22;981.9;;;29.7;39.4
76046;BME280;64741;41.730;44.788;2023-06-14T12:42:34;981.9;;;29.7;39.3
76046;BME280;64741;41.730;44.788;2023-06-14T12:47:24;981.9;;;29.7;39.7
76046;BME280;64741;41.730;44.788;2023-06-14T12:52:35;981.9;;;29.7;39.3
76046;BME280;64741;41.730;44.788;2023-06-14T12:57:08;981.9;;;29.7;38.1
76046;BME280;64741;41.730;44.788;2023-06-14T13:02:32;982;;;29.7;37.5
76046;BME280;64741;41.730;44.788;2023-06-14T13:07:26;982.4;;;29.7;37
76046;BME280;64741;41.730;44.788;2023-06-14T13:12:32;982.7;;;29.6;34.9
76046;BME280;64741;41.730;44.788;2023-06-14T13:17:24;982.9;;;29.4;32.7
76046;BME280;64741;41.730;44.788;2023-06-14T13:22:34;982.9;;;29.2;33
76046;BME280;64741;41.730;44.788;2023-06-14T13:27:27;982.9;;;29.1;33.8
76046;BME280;64741;41.730;44.788;2023-06-14T13:32:32;983;;;29;34.5
76046;BME280;64741;41.730;44.788;2023-06-14T13:37:22;983.2;;;29;35.5
76046;BME280;64741;41.730;44.788;2023-06-14T13:41:42;983.4;;;29;36
76046;BME280;64741;41.730;44.788;2023-06-14T13:47:26;983.5;;;28.9;36
76046;BME280;64741;41.730;44.788;2023-06-14T13:52:34;983.6;;;29;36.6
76046;BME280;64741;41.730;44.788;2023-06-14T13:57:24;983.6;;;29.1;36.9
76046;BME280;64741;41.730;44.788;2023-06-14T14:02:34;983.6;;;29.1;36.7
76046;BME280;64741;41.730;44.788;2023-06-14T14:07:29;983.6;;;29.1;36.4
76046;BME280;64741;41.730;44.788;2023-06-14T14:12:34;983.4;;;29.1;36.6
76046;BME280;64741;41.730;44.788;2023-06-14T14:17:22;983.4;;;29.1;36.9
76046;BME280;64741;41.730;44.788;2023-06-14T14:22:34;983.3;;;29.1;36.9
76046;BME280;64741;41.730;44.788;2023-06-14T14:27:14;983.2;;;29.2;36.6
76046;BME280;64741;41.730;44.788;2023-06-14T14:32:34;983.2;;;29.1;36.1
76046;BME280;64741;41.730;44.788;2023-06-14T14:37:22;983.1;;;29.1;35.9
76046;BME280;64741;41.730;44.788;2023-06-14T14:42:35;983.1;;;29;35.9
76046;BME280;64741;41.730;44.788;2023-06-14T14:47:20;983;;;29;36
76046;BME280;64741;41.730;44.788;2023-06-14T14:52:34;983.1;;;29;36.4
76046;BME280;64741;41.730;44.788;2023-06-14T14:57:22;983.2;;;29;36.6
76046;BME280;64741;41.730;44.788;2023-06-14T15:02:32;983.3;;;28.9;36.7
76046;BME280;64741;41.730;44.788;2023-06-14T15:07:12;983.5;;;28.9;37
76046;BME280;64741;41.730;44.788;2023-06-14T15:12:35;983.6;;;28.9;37.2
76046;BME280;64741;41.730;44.788;2023-06-14T15:17:21;983.7;;;28.9;37.4
76046;BME280;64741;41.730;44.788;2023-06-14T15:22:34;983.7;;;29;37.5
76046;BME280;64741;41.730;44.788;2023-06-14T15:27:24;983.8;;;29;37.6
76046;BME280;64741;41.730;44.788;2023-06-14T15:32:32;983.8;;;29.1;37.7
76046;BME280;64741;41.730;44.788;2023-06-14T15:37:24;983.8;;;29.1;37.7
76046;BME280;64741;41.730;44.788;2023-06-14T15:42:34;983.8;;;29.1;37.7
76046;BME280;64741;41.730;44.788;2023-06-14T15:47:28;983.9;;;29.1;37.6
76046;BME280;64741;41.730;44.788;2023-06-14T15:52:20;983.9;;;29;37.6
76046;BME280;64741;41.730;44.788;2023-06-14T15:57:24;983.8;;;29;37.8
76046;BME280;64741;41.730;44.788;2023-06-14T16:02:32;983.8;;;29.1;37.8
76046;BME280;64741;41.730;44.788;2023-06-14T16:07:26;983.9;;;29;37.7
76046;BME280;64741;41.730;44.788;2023-06-14T16:12:35;983.9;;;29;37.5
76046;BME280;64741;41.730;44.788;2023-06-14T16:17:21;984;;;28.9;37.6
76046;BME280;64741;41.730;44.788;2023-06-14T16:22:35;984;;;28.9;37.7
76046;BME280;64741;41.730;44.788;2023-06-14T16:27:27;984;;;28.9;37.4
76046;BME280;64741;41.730;44.788;2023-06-14T16:32:35;984;;;28.9;37.5
76046;BME280;64741;41.730;44.788;2023-06-14T16:37:21;984;;;28.9;37.6
76046;BME280;64741;41.730;44.788;2023-06-14T16:42:31;984.1;;;28.9;37.6
76046;BME280;64741;41.730;44.788;2023-06-14T16:47:27;984.2;;;28.9;37.5
76046;BME280;64741;41.730;44.788;2023-06-14T16:52:34;984.2;;;28.8;37.6
76046;BME280;64741;41.730;44.788;2023-06-14T16:57:23;984.2;;;28.8;37.6
76046;BME280;64741;41.730;44.788;2023-06-14T17:02:33;984.2;;;28.7;37.4
76046;BME280;64741;41.730;44.788;2023-06-14T17:07:27;984.2;;;28.5;37.7
76046;BME280;64741;41.730;44.788;2023-06-14T17:12:23;984.2;;;28.5;37.6
76046;BME280;64741;41.730;44.788;2023-06-14T17:17:09;984.3;;;28.6;37.8
76046;BME280;64741;41.730;44.788;2023-06-14T17:22:21;984.4;;;28.6;37.8
76046;BME280;64741;41.730;44.788;2023-06-14T17:27:35;984.6;;;28.7;37.7
76046;BME280;64741;41.730;44.788;2023-06-14T17:32:21;984.7;;;28.7;37.7
76046;BME280;64741;41.730;44.788;2023-06-14T17:37:25;984.8;;;28.7;37.8
76046;BME280;64741;41.730;44.788;2023-06-14T17:42:21;984.8;;;28.7;37.8
76046;BME280;64741;41.730;44.788;2023-06-14T17:47:33;984.8;;;28.7;37.8
76046;BME280;64741;41.730;44.788;2023-06-14T17:52:05;984.9;;;28.7;37.8
76046;BME280;64741;41.730;44.788;2023-06-14T17:57:25;985;;;28.7;37.7
76046;BME280;64741;41.730;44.788;2023-06-14T18:02:23;985.1;;;28.7;37.7
76046;BME280;64741;41.730;44.788;2023-06-14T18:07:35;985.1;;;28.8;37.7
76046;BME280;64741;41.730;44.788;2023-06-14T18:12:23;985.2;;;28.8;37.7
76046;BME280;64741;41.730;44.788;2023-06-14T18:17:27;985.2;;;28.8;37.8
76046;BME280;64741;41.730;44.788;2023-06-14T18:22:23;985.3;;;28.8;37.8
76046;BME280;64741;41.730;44.788;2023-06-14T18:27:35;985.3;;;28.8;37.9
76046;BME280;64741;41.730;44.788;2023-06-14T18:32:25;985.3;;;28.8;38
76046;BME280;64741;41.730;44.788;2023-06-14T18:37:31;985.3;;;28.8;38.1
76046;BME280;64741;41.730;44.788;2023-06-14T18:42:27;985.3;;;28.8;38.1
76046;BME280;64741;41.730;44.788;2023-06-14T18:47:35;985.3;;;28.8;38.1
76046;BME280;64741;41.730;44.788;2023-06-14T18:52:27;985.2;;;28.8;38.1
76046;BME280;64741;41.730;44.788;2023-06-14T18:57:31;985.2;;;28.8;38.1
76046;BME280;64741;41.730;44.788;2023-06-14T19:02:21;985.1;;;28.8;38.2
76046;BME280;64741;41.730;44.788;2023-06-14T19:07:33;985.2;;;28.8;38.1
76046;BME280;64741;41.730;44.788;2023-06-14T19:12:23;985.2;;;28.8;38.1
76046;BME280;64741;41.730;44.788;2023-06-14T19:17:27;985.2;;;28.7;38.3
76046;BME280;64741;41.730;44.788;2023-06-14T19:22:23;985.2;;;28.7;38.4
76046;BME280;64741;41.730;44.788;2023-06-14T19:27:33;985.2;;;28.8;38.5
76046;BME280;64741;41.730;44.788;2023-06-14T19:32:25;985.3;;;28.8;38.6
76046;BME280;64741;41.730;44.788;2023-06-14T19:37:27;985.2;;;28.7;38.9
76046;BME280;64741;41.730;44.788;2023-06-14T19:42:25;985.3;;;28.7;39.1
76046;BME280;64741;41.730;44.788;2023-06-14T19:47:19;985.3;;;28.7;39.2
76046;BME280;64741;41.730;44.788;2023-06-14T19:52:11;985.3;;;28.7;39.4
76046;BME280;64741;41.730;44.788;2023-06-14T19:57:27;985.3;;;28.7;39.5
76046;BME280;64741;41.730;44.788;2023-06-14T20:02:15;985.3;;;28.7;39.7
76046;BME280;64741;41.730;44.788;2023-06-14T20:07:33;985.4;;;28.7;39.7
76046;BME280;64741;41.730;44.788;2023-06-14T20:12:25;985.4;;;28.8;39.5
76046;BME280;64741;41.730;44.788;2023-06-14T20:17:27;985.4;;;28.8;39.5
76046;BME280;64741;41.730;44.788;2023-06-14T20:22:13;985.3;;;28.8;39.7
76046;BME280;64741;41.730;44.788;2023-06-14T20:27:33;985.3;;;28.7;39.8
76046;BME280;64741;41.730;44.788;2023-06-14T20:32:25;985.3;;;28.7;39.8
76046;BME280;64741;41.730;44.788;2023-06-14T20:37:27;985.2;;;28.7;39.8
76046;BME280;64741;41.730;44.788;2023-06-14T20:42:25;985.2;;;28.7;39.9
76046;BME280;64741;41.730;44.788;2023-06-14T20:47:33;985.2;;;28.7;39.8
76046;BME280;64741;41.730;44.788;2023-06-14T20:52:25;985.1;;;28.7;39.8
76046;BME280;64741;41.730;44.788;2023-06-14T20:57:27;985.2;;;28.7;39.8
76046;BME280;64741;41.730;44.788;2023-06-14T21:02:11;985.2;;;28.8;39.8
76046;BME280;64741;41.730;44.788;2023-06-14T21:06:49;985.1;;;28.7;39.8
76046;BME280;64741;41.730;44.788;2023-06-14T21:12:23;985.1;;;28.7;39.8
76046;BME280;64741;41.730;44.788;2023-06-14T21:17:27;985.1;;;28.7;40
76046;BME280;64741;41.730;44.788;2023-06-14T21:22:25;985.1;;;28.7;40
76046;BME280;64741;41.730;44.788;2023-06-14T21:27:33;985.2;;;28.7;40
76046;BME280;64741;41.730;44.788;2023-06-14T21:32:25;985.1;;;28.7;40
76046;BME280;64741;41.730;44.788;2023-06-14T21:37:25;985.1;;;28.7;39.9
76046;BME280;64741;41.730;44.788;2023-06-14T21:42:23;985.1;;;28.8;39.9
76046;BME280;64741;41.730;44.788;2023-06-14T21:47:25;985.1;;;28.8;39.9
76046;BME280;64741;41.730;44.788;2023-06-14T21:52:21;985.1;;;28.8;39.9
76046;BME280;64741;41.730;44.788;2023-06-14T21:57:25;985.1;;;28.8;39.9
76046;BME280;64741;41.730;44.788;2023-06-14T22:02:21;985.1;;;28.8;39.9
76046;BME280;64741;41.730;44.788;2023-06-14T22:07:25;985.2;;;28.8;39.9
76046;BME280;64741;41.730;44.788;2023-06-14T22:12:23;985.1;;;28.8;39.9
76046;BME280;64741;41.730;44.788;2023-06-14T22:17:25;985;;;28.8;39.9
76046;BME280;64741;41.730;44.788;2023-06-14T22:22:23;985;;;28.8;39.8
76046;BME280;64741;41.730;44.788;2023-06-14T22:27:23;985;;;28.8;39.8
76046;BME280;64741;41.730;44.788;2023-06-14T22:32:23;984.9;;;28.8;39.8
76046;BME280;64741;41.730;44.788;2023-06-14T22:37:25;984.9;;;28.8;39.8
76046;BME280;64741;41.730;44.788;2023-06-14T22:42:21;984.9;;;28.8;39.7
76046;BME280;64741;41.730;44.788;2023-06-14T22:47:25;985;;;28.8;39.7
76046;BME280;64741;41.730;44.788;2023-06-14T22:52:23;985.1;;;28.8;39.7
76046;BME280;64741;41.730;44.788;2023-06-14T22:57:25;985.1;;;28.8;39.7
76046;BME280;64741;41.730;44.788;2023-06-14T23:02:23;985;;;28.8;39.7
76046;BME280;64741;41.730;44.788;2023-06-14T23:07:19;985;;;28.8;39.6
76046;BME280;64741;41.730;44.788;2023-06-14T23:12:21;985;;;28.8;39.6
76046;BME280;64741;41.730;44.788;2023-06-14T23:17:23;984.9;;;28.8;39.6
76046;BME280;64741;41.730;44.788;2023-06-14T23:22:21;985;;;28.8;39.5
76046;BME280;64741;41.730;44.788;2023-06-14T23:27:07;985;;;28.7;39.5
76046;BME280;64741;41.730;44.788;2023-06-14T23:32:23;985;;;28.7;39.5
76046;BME280;64741;41.730;44.788;2023-06-14T23:36:40;985.1;;;28.7;39.5
76046;BME280;64741;41.730;44.788;2023-06-14T23:42:21;985.1;;;28.7;39.5
76046;BME280;64741;41.730;44.788;2023-06-14T23:47:25;985.1;;;28.7;39.5
76046;BME280;64741;41.730;44.788;2023-06-14T23:52:23;985.2;;;28.7;39.5
76046;BME280;64741;41.730;44.788;2023-06-14T23:57:25;985.2;;;28.7;39.4
